sensor_id;sensor_type;location;lat;lon;timestamp;P1;durP1;ratioP1;P2;durP2;ratioP2
59585;SDS011;45408;52.686;7.310;2024-03-17T00:00:16;9.35;;;3.45;;
59585;SDS011;45408;52.686;7.310;2024-03-17T00:02:46;9.82;;;3.25;;
59585;SDS011;45408;52.686;7.310;2024-03-17T00:05:12;6.65;;;2.90;;
59585;SDS011;45408;52.686;7.310;2024-03-17T00:07:39;11.75;;;3.40;;
59585;SDS011;45408;52.686;7.310;2024-03-17T00:10:05;6.30;;;2.90;;
59585;SDS011;45408;52.686;7.310;2024-03-17T00:12:32;7.70;;;3.50;;
59585;SDS011;45408;52.686;7.310;2024-03-17T00:14:58;7.07;;;3.05;;
59585;SDS011;45408;52.686;7.310;2024-03-17T00:17:24;8.15;;;2.95;;
59585;SDS011;45408;52.686;7.310;2024-03-17T00:19:50;8.40;;;3.70;;
59585;SDS011;45408;52.686;7.310;2024-03-17T00:22:16;10.07;;;3.00;;
59585;SDS011;45408;52.686;7.310;2024-03-17T00:24:43;6.00;;;2.97;;
59585;SDS011;45408;52.686;7.310;2024-03-17T00:27:09;7.35;;;3.47;;
59585;SDS011;45408;52.686;7.310;2024-03-17T00:29:36;7.60;;;3.25;;
59585;SDS011;45408;52.686;7.310;2024-03-17T00:32:02;9.30;;;3.55;;
59585;SDS011;45408;52.686;7.310;2024-03-17T00:34:28;8.98;;;3.08;;
59585;SDS011;45408;52.686;7.310;2024-03-17T00:36:54;9.88;;;3.15;;
59585;SDS011;45408;52.686;7.310;2024-03-17T00:39:20;9.82;;;2.70;;
59585;SDS011;45408;52.686;7.310;2024-03-17T00:41:45;9.13;;;2.90;;
59585;SDS011;45408;52.686;7.310;2024-03-17T00:44:11;7.82;;;2.70;;
59585;SDS011;45408;52.686;7.310;2024-03-17T00:46:36;8.07;;;2.60;;
59585;SDS011;45408;52.686;7.310;2024-03-17T00:49:02;10.95;;;2.60;;
59585;SDS011;45408;52.686;7.310;2024-03-17T00:51:27;8.88;;;2.90;;
59585;SDS011;45408;52.686;7.310;2024-03-17T00:53:53;4.57;;;2.25;;
59585;SDS011;45408;52.686;7.310;2024-03-17T00:56:18;7.03;;;2.85;;
59585;SDS011;45408;52.686;7.310;2024-03-17T00:58:44;9.18;;;2.85;;
59585;SDS011;45408;52.686;7.310;2024-03-17T01:01:10;6.53;;;2.53;;
59585;SDS011;45408;52.686;7.310;2024-03-17T01:03:36;5.45;;;2.55;;
59585;SDS011;45408;52.686;7.310;2024-03-17T01:06:05;4.97;;;2.35;;
59585;SDS011;45408;52.686;7.310;2024-03-17T01:08:30;4.88;;;2.30;;
59585;SDS011;45408;52.686;7.310;2024-03-17T01:10:56;7.18;;;2.45;;
59585;SDS011;45408;52.686;7.310;2024-03-17T01:13:23;8.82;;;2.78;;
59585;SDS011;45408;52.686;7.310;2024-03-17T01:15:53;10.23;;;3.10;;
59585;SDS011;45408;52.686;7.310;2024-03-17T01:18:18;5.05;;;2.40;;
59585;SDS011;45408;52.686;7.310;2024-03-17T01:20:44;5.97;;;2.70;;
59585;SDS011;45408;52.686;7.310;2024-03-17T01:23:10;8.00;;;3.03;;
59585;SDS011;45408;52.686;7.310;2024-03-17T01:25:36;6.75;;;2.42;;
59585;SDS011;45408;52.686;7.310;2024-03-17T01:28:02;6.43;;;2.22;;
59585;SDS011;45408;52.686;7.310;2024-03-17T01:30:29;9.48;;;2.63;;
59585;SDS011;45408;52.686;7.310;2024-03-17T01:32:55;3.15;;;2.38;;
59585;SDS011;45408;52.686;7.310;2024-03-17T01:35:20;6.18;;;2.88;;
59585;SDS011;45408;52.686;7.310;2024-03-17T01:37:46;6.53;;;2.83;;
59585;SDS011;45408;52.686;7.310;2024-03-17T01:40:12;8.30;;;3.38;;
59585;SDS011;45408;52.686;7.310;2024-03-17T01:42:38;4.13;;;2.25;;
59585;SDS011;45408;52.686;7.310;2024-03-17T01:47:42;6.20;;;2.47;;
59585;SDS011;45408;52.686;7.310;2024-03-17T01:50:08;6.80;;;2.83;;
59585;SDS011;45408;52.686;7.310;2024-03-17T01:52:34;4.97;;;2.40;;
59585;SDS011;45408;52.686;7.310;2024-03-17T01:55:00;7.07;;;2.70;;
59585;SDS011;45408;52.686;7.310;2024-03-17T01:57:28;4.90;;;2.72;;
59585;SDS011;45408;52.686;7.310;2024-03-17T01:59:53;8.60;;;2.83;;
59585;SDS011;45408;52.686;7.310;2024-03-17T02:02:19;5.10;;;2.50;;
59585;SDS011;45408;52.686;7.310;2024-03-17T02:04:45;5.30;;;2.70;;
59585;SDS011;45408;52.686;7.310;2024-03-17T02:07:11;6.55;;;2.65;;
59585;SDS011;45408;52.686;7.310;2024-03-17T02:09:36;7.22;;;2.75;;
59585;SDS011;45408;52.686;7.310;2024-03-17T02:12:02;4.97;;;2.25;;
59585;SDS011;45408;52.686;7.310;2024-03-17T02:14:27;6.97;;;2.47;;
59585;SDS011;45408;52.686;7.310;2024-03-17T02:16:53;4.93;;;2.28;;
59585;SDS011;45408;52.686;7.310;2024-03-17T02:19:18;3.75;;;2.30;;
59585;SDS011;45408;52.686;7.310;2024-03-17T02:21:44;9.02;;;2.55;;
59585;SDS011;45408;52.686;7.310;2024-03-17T02:24:10;5.85;;;2.45;;
59585;SDS011;45408;52.686;7.310;2024-03-17T02:26:35;3.75;;;2.10;;
59585;SDS011;45408;52.686;7.310;2024-03-17T02:29:02;7.35;;;2.50;;
59585;SDS011;45408;52.686;7.310;2024-03-17T02:31:27;5.22;;;2.30;;
59585;SDS011;45408;52.686;7.310;2024-03-17T02:33:53;7.20;;;2.50;;
59585;SDS011;45408;52.686;7.310;2024-03-17T02:36:18;6.50;;;2.42;;
59585;SDS011;45408;52.686;7.310;2024-03-17T02:38:44;7.47;;;2.38;;
59585;SDS011;45408;52.686;7.310;2024-03-17T02:41:28;9.73;;;2.80;;
59585;SDS011;45408;52.686;7.310;2024-03-17T02:43:54;3.38;;;2.30;;
59585;SDS011;45408;52.686;7.310;2024-03-17T02:46:19;4.97;;;2.33;;
59585;SDS011;45408;52.686;7.310;2024-03-17T02:48:46;6.03;;;3.15;;
59585;SDS011;45408;52.686;7.310;2024-03-17T02:51:13;7.47;;;2.70;;
59585;SDS011;45408;52.686;7.310;2024-03-17T02:53:43;6.93;;;2.30;;
59585;SDS011;45408;52.686;7.310;2024-03-17T02:56:10;4.80;;;2.78;;
59585;SDS011;45408;52.686;7.310;2024-03-17T02:58:36;4.85;;;2.53;;
59585;SDS011;45408;52.686;7.310;2024-03-17T03:01:05;4.03;;;2.15;;
59585;SDS011;45408;52.686;7.310;2024-03-17T03:03:32;7.15;;;2.67;;
59585;SDS011;45408;52.686;7.310;2024-03-17T03:05:58;4.45;;;2.45;;
59585;SDS011;45408;52.686;7.310;2024-03-17T03:08:26;7.37;;;2.83;;
59585;SDS011;45408;52.686;7.310;2024-03-17T03:10:52;9.90;;;2.90;;
59585;SDS011;45408;52.686;7.310;2024-03-17T03:13:17;4.82;;;2.72;;
59585;SDS011;45408;52.686;7.310;2024-03-17T03:15:43;9.43;;;2.38;;
59585;SDS011;45408;52.686;7.310;2024-03-17T03:18:09;6.75;;;2.72;;
59585;SDS011;45408;52.686;7.310;2024-03-17T03:20:34;4.88;;;2.50;;
59585;SDS011;45408;52.686;7.310;2024-03-17T03:23:01;6.00;;;2.47;;
59585;SDS011;45408;52.686;7.310;2024-03-17T03:25:26;12.43;;;2.50;;
59585;SDS011;45408;52.686;7.310;2024-03-17T03:27:52;8.13;;;2.50;;
59585;SDS011;45408;52.686;7.310;2024-03-17T03:30:18;6.78;;;2.47;;
59585;SDS011;45408;52.686;7.310;2024-03-17T03:32:46;5.05;;;2.00;;
59585;SDS011;45408;52.686;7.310;2024-03-17T03:35:13;4.60;;;2.28;;
59585;SDS011;45408;52.686;7.310;2024-03-17T03:37:40;4.00;;;2.30;;
59585;SDS011;45408;52.686;7.310;2024-03-17T03:40:06;5.40;;;2.65;;
59585;SDS011;45408;52.686;7.310;2024-03-17T03:42:42;5.00;;;2.38;;
59585;SDS011;45408;52.686;7.310;2024-03-17T03:45:11;4.32;;;2.60;;
59585;SDS011;45408;52.686;7.310;2024-03-17T03:50:06;4.53;;;2.47;;
59585;SDS011;45408;52.686;7.310;2024-03-17T03:52:32;6.97;;;2.53;;
59585;SDS011;45408;52.686;7.310;2024-03-17T03:54:58;4.43;;;2.35;;
59585;SDS011;45408;52.686;7.310;2024-03-17T03:57:24;8.13;;;2.63;;
59585;SDS011;45408;52.686;7.310;2024-03-17T03:59:53;5.82;;;2.63;;
59585;SDS011;45408;52.686;7.310;2024-03-17T04:02:20;4.00;;;2.20;;
59585;SDS011;45408;52.686;7.310;2024-03-17T04:04:46;5.30;;;2.03;;
59585;SDS011;45408;52.686;7.310;2024-03-17T04:07:13;4.45;;;2.33;;
59585;SDS011;45408;52.686;7.310;2024-03-17T04:09:38;7.10;;;2.65;;
59585;SDS011;45408;52.686;7.310;2024-03-17T04:12:04;4.68;;;2.30;;
59585;SDS011;45408;52.686;7.310;2024-03-17T04:14:30;8.70;;;2.65;;
59585;SDS011;45408;52.686;7.310;2024-03-17T04:16:56;7.05;;;2.70;;
59585;SDS011;45408;52.686;7.310;2024-03-17T04:19:22;5.63;;;2.40;;
59585;SDS011;45408;52.686;7.310;2024-03-17T04:21:47;8.20;;;3.03;;
59585;SDS011;45408;52.686;7.310;2024-03-17T04:24:13;4.20;;;2.53;;
59585;SDS011;45408;52.686;7.310;2024-03-17T04:26:38;3.78;;;2.53;;
59585;SDS011;45408;52.686;7.310;2024-03-17T04:29:04;4.97;;;3.05;;
59585;SDS011;45408;52.686;7.310;2024-03-17T04:31:31;4.47;;;2.42;;
59585;SDS011;45408;52.686;7.310;2024-03-17T04:33:57;6.10;;;2.58;;
59585;SDS011;45408;52.686;7.310;2024-03-17T04:36:22;8.98;;;2.65;;
59585;SDS011;45408;52.686;7.310;2024-03-17T04:38:48;6.57;;;2.63;;
59585;SDS011;45408;52.686;7.310;2024-03-17T04:41:17;5.10;;;2.83;;
59585;SDS011;45408;52.686;7.310;2024-03-17T04:43:43;6.30;;;2.80;;
59585;SDS011;45408;52.686;7.310;2024-03-17T04:46:09;4.03;;;2.08;;
59585;SDS011;45408;52.686;7.310;2024-03-17T04:48:37;5.00;;;2.42;;
59585;SDS011;45408;52.686;7.310;2024-03-17T04:51:05;7.22;;;2.65;;
59585;SDS011;45408;52.686;7.310;2024-03-17T04:53:31;6.30;;;2.38;;
59585;SDS011;45408;52.686;7.310;2024-03-17T04:56:03;4.70;;;2.25;;
59585;SDS011;45408;52.686;7.310;2024-03-17T04:58:30;8.10;;;2.75;;
59585;SDS011;45408;52.686;7.310;2024-03-17T05:00:57;7.05;;;2.88;;
59585;SDS011;45408;52.686;7.310;2024-03-17T05:03:22;7.85;;;2.92;;
59585;SDS011;45408;52.686;7.310;2024-03-17T05:05:48;6.80;;;3.05;;
59585;SDS011;45408;52.686;7.310;2024-03-17T05:08:14;8.43;;;3.03;;
59585;SDS011;45408;52.686;7.310;2024-03-17T05:10:40;5.63;;;2.45;;
59585;SDS011;45408;52.686;7.310;2024-03-17T05:13:05;5.75;;;2.92;;
59585;SDS011;45408;52.686;7.310;2024-03-17T05:15:31;7.03;;;2.45;;
59585;SDS011;45408;52.686;7.310;2024-03-17T05:17:56;3.28;;;2.38;;
59585;SDS011;45408;52.686;7.310;2024-03-17T05:20:22;7.13;;;2.45;;
59585;SDS011;45408;52.686;7.310;2024-03-17T05:22:48;10.80;;;2.50;;
59585;SDS011;45408;52.686;7.310;2024-03-17T05:25:14;3.45;;;2.17;;
59585;SDS011;45408;52.686;7.310;2024-03-17T05:27:40;8.63;;;2.40;;
59585;SDS011;45408;52.686;7.310;2024-03-17T05:30:06;6.25;;;2.67;;
59585;SDS011;45408;52.686;7.310;2024-03-17T05:32:34;5.30;;;2.67;;
59585;SDS011;45408;52.686;7.310;2024-03-17T05:34:59;6.60;;;2.97;;
59585;SDS011;45408;52.686;7.310;2024-03-17T05:37:25;8.77;;;2.35;;
59585;SDS011;45408;52.686;7.310;2024-03-17T05:39:53;4.00;;;2.42;;
59585;SDS011;45408;52.686;7.310;2024-03-17T05:42:19;5.30;;;2.40;;
59585;SDS011;45408;52.686;7.310;2024-03-17T05:44:47;4.28;;;2.40;;
59585;SDS011;45408;52.686;7.310;2024-03-17T05:47:16;4.13;;;2.55;;
59585;SDS011;45408;52.686;7.310;2024-03-17T05:49:43;7.97;;;2.88;;
59585;SDS011;45408;52.686;7.310;2024-03-17T05:52:08;5.90;;;2.65;;
59585;SDS011;45408;52.686;7.310;2024-03-17T05:54:34;6.32;;;2.65;;
59585;SDS011;45408;52.686;7.310;2024-03-17T05:57:00;4.65;;;2.88;;
59585;SDS011;45408;52.686;7.310;2024-03-17T05:59:25;8.70;;;3.03;;
59585;SDS011;45408;52.686;7.310;2024-03-17T06:01:51;8.60;;;3.00;;
59585;SDS011;45408;52.686;7.310;2024-03-17T06:04:16;6.45;;;3.17;;
59585;SDS011;45408;52.686;7.310;2024-03-17T06:06:42;5.47;;;2.92;;
59585;SDS011;45408;52.686;7.310;2024-03-17T06:09:08;9.95;;;2.95;;
59585;SDS011;45408;52.686;7.310;2024-03-17T06:11:36;5.18;;;2.97;;
59585;SDS011;45408;52.686;7.310;2024-03-17T06:14:01;6.95;;;2.90;;
59585;SDS011;45408;52.686;7.310;2024-03-17T06:16:30;5.15;;;2.60;;
59585;SDS011;45408;52.686;7.310;2024-03-17T06:18:56;7.80;;;3.03;;
59585;SDS011;45408;52.686;7.310;2024-03-17T06:21:21;4.75;;;2.53;;
59585;SDS011;45408;52.686;7.310;2024-03-17T06:23:47;9.75;;;2.85;;
59585;SDS011;45408;52.686;7.310;2024-03-17T06:26:13;10.27;;;2.97;;
59585;SDS011;45408;52.686;7.310;2024-03-17T06:28:39;10.10;;;2.80;;
59585;SDS011;45408;52.686;7.310;2024-03-17T06:31:05;6.93;;;3.20;;
59585;SDS011;45408;52.686;7.310;2024-03-17T06:33:32;4.07;;;2.72;;
59585;SDS011;45408;52.686;7.310;2024-03-17T06:35:58;8.00;;;3.17;;
59585;SDS011;45408;52.686;7.310;2024-03-17T06:38:29;5.70;;;3.28;;
59585;SDS011;45408;52.686;7.310;2024-03-17T06:40:55;10.43;;;4.00;;
59585;SDS011;45408;52.686;7.310;2024-03-17T06:43:20;6.75;;;2.95;;
59585;SDS011;45408;52.686;7.310;2024-03-17T06:45:56;6.18;;;3.03;;
59585;SDS011;45408;52.686;7.310;2024-03-17T06:48:25;7.30;;;2.58;;
59585;SDS011;45408;52.686;7.310;2024-03-17T06:50:51;5.13;;;2.72;;
59585;SDS011;45408;52.686;7.310;2024-03-17T06:53:18;10.00;;;3.13;;
59585;SDS011;45408;52.686;7.310;2024-03-17T06:55:44;6.25;;;3.22;;
59585;SDS011;45408;52.686;7.310;2024-03-17T06:58:18;11.52;;;3.17;;
59585;SDS011;45408;52.686;7.310;2024-03-17T07:03:28;5.45;;;3.00;;
59585;SDS011;45408;52.686;7.310;2024-03-17T07:05:58;9.93;;;2.72;;
59585;SDS011;45408;52.686;7.310;2024-03-17T07:08:27;7.10;;;2.78;;
59585;SDS011;45408;52.686;7.310;2024-03-17T07:11:06;11.57;;;3.10;;
59585;SDS011;45408;52.686;7.310;2024-03-17T07:16:01;9.35;;;3.10;;
59585;SDS011;45408;52.686;7.310;2024-03-17T07:18:28;8.05;;;2.80;;
59585;SDS011;45408;52.686;7.310;2024-03-17T07:20:57;8.73;;;2.97;;
59585;SDS011;45408;52.686;7.310;2024-03-17T07:23:24;6.60;;;2.60;;
59585;SDS011;45408;52.686;7.310;2024-03-17T07:25:57;6.43;;;3.10;;
59585;SDS011;45408;52.686;7.310;2024-03-17T07:28:24;12.70;;;3.60;;
59585;SDS011;45408;52.686;7.310;2024-03-17T07:30:51;5.95;;;2.53;;
59585;SDS011;45408;52.686;7.310;2024-03-17T07:33:17;9.20;;;2.80;;
59585;SDS011;45408;52.686;7.310;2024-03-17T07:35:49;6.03;;;2.67;;
59585;SDS011;45408;52.686;7.310;2024-03-17T07:38:15;5.07;;;2.17;;
59585;SDS011;45408;52.686;7.310;2024-03-17T07:40:41;8.85;;;2.92;;
59585;SDS011;45408;52.686;7.310;2024-03-17T07:43:07;8.75;;;3.15;;
59585;SDS011;45408;52.686;7.310;2024-03-17T07:45:33;9.73;;;3.33;;
59585;SDS011;45408;52.686;7.310;2024-03-17T07:47:58;6.25;;;2.83;;
59585;SDS011;45408;52.686;7.310;2024-03-17T07:50:24;7.78;;;3.08;;
59585;SDS011;45408;52.686;7.310;2024-03-17T07:52:49;8.98;;;2.67;;
59585;SDS011;45408;52.686;7.310;2024-03-17T07:55:15;8.07;;;2.88;;
59585;SDS011;45408;52.686;7.310;2024-03-17T07:57:41;9.07;;;2.97;;
59585;SDS011;45408;52.686;7.310;2024-03-17T08:00:07;5.60;;;2.58;;
59585;SDS011;45408;52.686;7.310;2024-03-17T08:02:47;9.05;;;3.13;;
59585;SDS011;45408;52.686;7.310;2024-03-17T08:05:13;6.00;;;2.78;;
59585;SDS011;45408;52.686;7.310;2024-03-17T08:07:39;7.28;;;2.65;;
59585;SDS011;45408;52.686;7.310;2024-03-17T08:10:07;7.90;;;3.30;;
59585;SDS011;45408;52.686;7.310;2024-03-17T08:12:33;9.40;;;2.53;;
59585;SDS011;45408;52.686;7.310;2024-03-17T08:14:58;12.95;;;3.33;;
59585;SDS011;45408;52.686;7.310;2024-03-17T08:17:25;8.48;;;3.78;;
59585;SDS011;45408;52.686;7.310;2024-03-17T08:19:51;4.80;;;3.03;;
59585;SDS011;45408;52.686;7.310;2024-03-17T08:22:17;5.30;;;2.42;;
59585;SDS011;45408;52.686;7.310;2024-03-17T08:24:43;9.77;;;3.20;;
59585;SDS011;45408;52.686;7.310;2024-03-17T08:27:08;9.05;;;3.20;;
59585;SDS011;45408;52.686;7.310;2024-03-17T08:29:34;7.05;;;2.88;;
59585;SDS011;45408;52.686;7.310;2024-03-17T08:32:00;12.13;;;3.20;;
59585;SDS011;45408;52.686;7.310;2024-03-17T08:34:25;8.35;;;2.58;;
59585;SDS011;45408;52.686;7.310;2024-03-17T08:36:51;10.27;;;3.03;;
59585;SDS011;45408;52.686;7.310;2024-03-17T08:39:16;8.38;;;3.38;;
59585;SDS011;45408;52.686;7.310;2024-03-17T08:41:42;18.50;;;3.67;;
59585;SDS011;45408;52.686;7.310;2024-03-17T08:44:09;12.85;;;4.28;;
59585;SDS011;45408;52.686;7.310;2024-03-17T08:46:37;5.60;;;3.08;;
59585;SDS011;45408;52.686;7.310;2024-03-17T08:49:03;10.90;;;3.83;;
59585;SDS011;45408;52.686;7.310;2024-03-17T08:51:29;8.15;;;3.95;;
59585;SDS011;45408;52.686;7.310;2024-03-17T08:53:55;9.60;;;3.70;;
59585;SDS011;45408;52.686;7.310;2024-03-17T08:56:22;16.67;;;4.97;;
59585;SDS011;45408;52.686;7.310;2024-03-17T08:58:48;10.48;;;4.22;;
59585;SDS011;45408;52.686;7.310;2024-03-17T09:01:14;17.10;;;4.38;;
59585;SDS011;45408;52.686;7.310;2024-03-17T09:03:41;8.98;;;3.45;;
59585;SDS011;45408;52.686;7.310;2024-03-17T09:06:17;9.80;;;4.00;;
59585;SDS011;45408;52.686;7.310;2024-03-17T09:08:44;17.20;;;5.80;;
59585;SDS011;45408;52.686;7.310;2024-03-17T09:11:13;14.30;;;4.88;;
59585;SDS011;45408;52.686;7.310;2024-03-17T09:13:39;6.72;;;3.78;;
59585;SDS011;45408;52.686;7.310;2024-03-17T09:16:04;16.98;;;4.70;;
59585;SDS011;45408;52.686;7.310;2024-03-17T09:18:31;13.70;;;4.50;;
59585;SDS011;45408;52.686;7.310;2024-03-17T09:20:58;10.35;;;4.85;;
59585;SDS011;45408;52.686;7.310;2024-03-17T09:23:33;15.45;;;5.57;;
59585;SDS011;45408;52.686;7.310;2024-03-17T09:26:06;11.57;;;5.15;;
59585;SDS011;45408;52.686;7.310;2024-03-17T09:28:36;9.80;;;3.90;;
59585;SDS011;45408;52.686;7.310;2024-03-17T09:31:02;11.73;;;4.97;;
59585;SDS011;45408;52.686;7.310;2024-03-17T09:33:30;7.43;;;4.30;;
59585;SDS011;45408;52.686;7.310;2024-03-17T09:36:03;11.82;;;4.68;;
59585;SDS011;45408;52.686;7.310;2024-03-17T09:38:31;12.88;;;5.25;;
59585;SDS011;45408;52.686;7.310;2024-03-17T09:40:57;11.52;;;5.25;;
59585;SDS011;45408;52.686;7.310;2024-03-17T09:43:25;9.87;;;5.40;;
59585;SDS011;45408;52.686;7.310;2024-03-17T09:45:51;13.27;;;5.50;;
59585;SDS011;45408;52.686;7.310;2024-03-17T09:48:26;13.05;;;4.88;;
59585;SDS011;45408;52.686;7.310;2024-03-17T09:50:55;11.60;;;5.50;;
59585;SDS011;45408;52.686;7.310;2024-03-17T10:01:16;14.63;;;6.85;;
59585;SDS011;45408;52.686;7.310;2024-03-17T10:03:43;14.45;;;8.32;;
59585;SDS011;45408;52.686;7.310;2024-03-17T10:06:16;14.07;;;6.65;;
59585;SDS011;45408;52.686;7.310;2024-03-17T10:08:53;14.68;;;7.40;;
59585;SDS011;45408;52.686;7.310;2024-03-17T10:11:20;14.80;;;7.85;;
59585;SDS011;45408;52.686;7.310;2024-03-17T10:14:01;13.68;;;7.65;;
59585;SDS011;45408;52.686;7.310;2024-03-17T10:16:31;11.27;;;6.93;;
59585;SDS011;45408;52.686;7.310;2024-03-17T10:21:39;18.90;;;7.55;;
59585;SDS011;45408;52.686;7.310;2024-03-17T10:24:06;17.33;;;8.85;;
59585;SDS011;45408;52.686;7.310;2024-03-17T10:26:48;17.25;;;8.45;;
59585;SDS011;45408;52.686;7.310;2024-03-17T10:31:51;18.95;;;8.95;;
59585;SDS011;45408;52.686;7.310;2024-03-17T10:34:21;13.85;;;8.55;;
59585;SDS011;45408;52.686;7.310;2024-03-17T10:39:31;16.95;;;6.97;;
59585;SDS011;45408;52.686;7.310;2024-03-17T10:42:01;17.55;;;9.32;;
59585;SDS011;45408;52.686;7.310;2024-03-17T10:44:29;15.60;;;7.72;;
59585;SDS011;45408;52.686;7.310;2024-03-17T10:46:56;17.70;;;10.77;;
59585;SDS011;45408;52.686;7.310;2024-03-17T10:49:27;17.58;;;9.13;;
59585;SDS011;45408;52.686;7.310;2024-03-17T10:51:57;13.15;;;8.45;;
59585;SDS011;45408;52.686;7.310;2024-03-17T10:54:25;18.77;;;9.32;;
59585;SDS011;45408;52.686;7.310;2024-03-17T10:57:05;19.42;;;11.50;;
59585;SDS011;45408;52.686;7.310;2024-03-17T10:59:40;17.00;;;8.75;;
59585;SDS011;45408;52.686;7.310;2024-03-17T11:02:23;20.40;;;10.00;;
59585;SDS011;45408;52.686;7.310;2024-03-17T11:04:51;18.05;;;9.27;;
59585;SDS011;45408;52.686;7.310;2024-03-17T11:07:17;17.38;;;9.32;;
59585;SDS011;45408;52.686;7.310;2024-03-17T11:09:44;15.80;;;9.23;;
59585;SDS011;45408;52.686;7.310;2024-03-17T11:18:40;17.27;;;9.43;;
59585;SDS011;45408;52.686;7.310;2024-03-17T11:20:42;16.95;;;8.60;;
59585;SDS011;45408;52.686;7.310;2024-03-17T11:23:08;14.52;;;7.95;;
59585;SDS011;45408;52.686;7.310;2024-03-17T11:28:00;14.13;;;8.43;;
59585;SDS011;45408;52.686;7.310;2024-03-17T11:41:30;12.43;;;9.13;;
59585;SDS011;45408;52.686;7.310;2024-03-17T11:49:23;13.30;;;7.78;;
59585;SDS011;45408;52.686;7.310;2024-03-17T11:51:50;14.20;;;7.40;;
59585;SDS011;45408;52.686;7.310;2024-03-17T11:54:24;10.88;;;7.45;;
59585;SDS011;45408;52.686;7.310;2024-03-17T11:56:53;12.70;;;7.70;;
59585;SDS011;45408;52.686;7.310;2024-03-17T11:59:20;12.98;;;7.57;;
59585;SDS011;45408;52.686;7.310;2024-03-17T12:01:46;12.82;;;7.32;;
59585;SDS011;45408;52.686;7.310;2024-03-17T12:04:16;14.68;;;6.93;;
59585;SDS011;45408;52.686;7.310;2024-03-17T12:06:51;13.48;;;7.30;;
59585;SDS011;45408;52.686;7.310;2024-03-17T12:11:50;13.88;;;8.18;;
59585;SDS011;45408;52.686;7.310;2024-03-17T12:14:17;12.82;;;7.22;;
59585;SDS011;45408;52.686;7.310;2024-03-17T12:16:52;13.45;;;9.65;;
59585;SDS011;45408;52.686;7.310;2024-03-17T12:19:18;11.93;;;7.65;;
59585;SDS011;45408;52.686;7.310;2024-03-17T12:21:45;11.70;;;7.20;;
59585;SDS011;45408;52.686;7.310;2024-03-17T12:24:16;9.18;;;6.50;;
59585;SDS011;45408;52.686;7.310;2024-03-17T12:26:43;11.15;;;7.30;;
59585;SDS011;45408;52.686;7.310;2024-03-17T12:29:22;8.48;;;6.53;;
59585;SDS011;45408;52.686;7.310;2024-03-17T12:31:50;11.00;;;7.07;;
59585;SDS011;45408;52.686;7.310;2024-03-17T12:34:18;13.18;;;7.57;;
59585;SDS011;45408;52.686;7.310;2024-03-17T12:36:44;13.07;;;6.25;;
59585;SDS011;45408;52.686;7.310;2024-03-17T12:39:11;13.15;;;7.60;;
59585;SDS011;45408;52.686;7.310;2024-03-17T12:42:00;15.07;;;7.90;;
59585;SDS011;45408;52.686;7.310;2024-03-17T12:44:26;10.13;;;6.97;;
59585;SDS011;45408;52.686;7.310;2024-03-17T12:46:56;11.85;;;7.50;;
59585;SDS011;45408;52.686;7.310;2024-03-17T12:49:28;11.07;;;7.82;;
59585;SDS011;45408;52.686;7.310;2024-03-17T12:51:54;12.35;;;7.55;;
59585;SDS011;45408;52.686;7.310;2024-03-17T12:54:21;11.60;;;6.90;;
59585;SDS011;45408;52.686;7.310;2024-03-17T12:56:49;10.75;;;7.70;;
59585;SDS011;45408;52.686;7.310;2024-03-17T12:59:42;14.55;;;9.20;;
59585;SDS011;45408;52.686;7.310;2024-03-17T13:02:27;13.27;;;8.57;;
59585;SDS011;45408;52.686;7.310;2024-03-17T13:07:45;14.23;;;8.60;;
59585;SDS011;45408;52.686;7.310;2024-03-17T13:10:15;14.07;;;7.63;;
59585;SDS011;45408;52.686;7.310;2024-03-17T13:12:42;15.75;;;10.23;;
59585;SDS011;45408;52.686;7.310;2024-03-17T13:15:12;15.30;;;7.57;;
59585;SDS011;45408;52.686;7.310;2024-03-17T13:17:44;16.45;;;8.23;;
59585;SDS011;45408;52.686;7.310;2024-03-17T13:20:14;12.60;;;8.07;;
59585;SDS011;45408;52.686;7.310;2024-03-17T13:22:44;13.02;;;7.65;;
59585;SDS011;45408;52.686;7.310;2024-03-17T13:25:22;14.48;;;8.02;;
59585;SDS011;45408;52.686;7.310;2024-03-17T13:27:50;14.20;;;7.63;;
59585;SDS011;45408;52.686;7.310;2024-03-17T13:30:20;11.38;;;8.07;;
59585;SDS011;45408;52.686;7.310;2024-03-17T13:32:54;13.93;;;8.07;;
59585;SDS011;45408;52.686;7.310;2024-03-17T13:35:26;13.18;;;7.53;;
59585;SDS011;45408;52.686;7.310;2024-03-17T13:37:54;11.00;;;7.30;;
59585;SDS011;45408;52.686;7.310;2024-03-17T13:40:21;13.02;;;7.45;;
59585;SDS011;45408;52.686;7.310;2024-03-17T13:42:51;15.13;;;8.85;;
59585;SDS011;45408;52.686;7.310;2024-03-17T13:45:18;13.80;;;7.82;;
59585;SDS011;45408;52.686;7.310;2024-03-17T13:47:52;17.13;;;11.30;;
59585;SDS011;45408;52.686;7.310;2024-03-17T13:50:20;15.73;;;9.50;;
59585;SDS011;45408;52.686;7.310;2024-03-17T13:52:46;16.30;;;9.68;;
59585;SDS011;45408;52.686;7.310;2024-03-17T13:55:15;12.98;;;9.05;;
59585;SDS011;45408;52.686;7.310;2024-03-17T13:57:45;14.75;;;8.95;;
59585;SDS011;45408;52.686;7.310;2024-03-17T14:00:12;16.42;;;9.27;;
59585;SDS011;45408;52.686;7.310;2024-03-17T14:02:48;13.88;;;9.00;;
59585;SDS011;45408;52.686;7.310;2024-03-17T14:05:16;16.35;;;11.52;;
59585;SDS011;45408;52.686;7.310;2024-03-17T14:07:44;14.32;;;9.15;;
59585;SDS011;45408;52.686;7.310;2024-03-17T14:10:10;14.80;;;8.35;;
59585;SDS011;45408;52.686;7.310;2024-03-17T14:12:36;13.20;;;8.48;;
59585;SDS011;45408;52.686;7.310;2024-03-17T14:15:09;12.98;;;7.70;;
59585;SDS011;45408;52.686;7.310;2024-03-17T14:17:38;11.68;;;7.25;;
59585;SDS011;45408;52.686;7.310;2024-03-17T14:20:08;11.55;;;8.30;;
59585;SDS011;45408;52.686;7.310;2024-03-17T14:25:04;13.48;;;7.75;;
59585;SDS011;45408;52.686;7.310;2024-03-17T14:27:32;12.80;;;8.15;;
59585;SDS011;45408;52.686;7.310;2024-03-17T14:29:59;15.15;;;7.32;;
59585;SDS011;45408;52.686;7.310;2024-03-17T14:32:25;11.55;;;7.40;;
59585;SDS011;45408;52.686;7.310;2024-03-17T14:34:50;13.48;;;8.30;;
59585;SDS011;45408;52.686;7.310;2024-03-17T14:37:16;12.23;;;7.53;;
59585;SDS011;45408;52.686;7.310;2024-03-17T14:39:42;14.55;;;8.68;;
59585;SDS011;45408;52.686;7.310;2024-03-17T14:42:07;15.10;;;7.22;;
59585;SDS011;45408;52.686;7.310;2024-03-17T14:44:36;14.48;;;7.28;;
59585;SDS011;45408;52.686;7.310;2024-03-17T14:47:02;13.10;;;7.45;;
59585;SDS011;45408;52.686;7.310;2024-03-17T14:49:32;11.75;;;7.55;;
59585;SDS011;45408;52.686;7.310;2024-03-17T14:51:58;10.88;;;7.50;;
59585;SDS011;45408;52.686;7.310;2024-03-17T14:54:24;10.52;;;7.05;;
59585;SDS011;45408;52.686;7.310;2024-03-17T14:56:51;13.07;;;7.28;;
59585;SDS011;45408;52.686;7.310;2024-03-17T14:59:17;10.30;;;6.82;;
59585;SDS011;45408;52.686;7.310;2024-03-17T15:01:45;10.50;;;6.72;;
59585;SDS011;45408;52.686;7.310;2024-03-17T15:04:13;11.45;;;7.60;;
59585;SDS011;45408;52.686;7.310;2024-03-17T15:06:40;11.48;;;7.45;;
59585;SDS011;45408;52.686;7.310;2024-03-17T15:09:06;12.55;;;7.35;;
59585;SDS011;45408;52.686;7.310;2024-03-17T15:11:31;11.50;;;7.28;;
59585;SDS011;45408;52.686;7.310;2024-03-17T15:13:57;9.80;;;7.03;;
59585;SDS011;45408;52.686;7.310;2024-03-17T15:16:23;11.10;;;7.35;;
59585;SDS011;45408;52.686;7.310;2024-03-17T15:18:48;13.98;;;7.38;;
59585;SDS011;45408;52.686;7.310;2024-03-17T15:21:14;15.80;;;7.63;;
59585;SDS011;45408;52.686;7.310;2024-03-17T15:23:40;14.18;;;8.38;;
59585;SDS011;45408;52.686;7.310;2024-03-17T15:26:06;16.83;;;8.57;;
59585;SDS011;45408;52.686;7.310;2024-03-17T15:28:36;11.65;;;7.93;;
59585;SDS011;45408;52.686;7.310;2024-03-17T15:31:04;11.02;;;6.70;;
59585;SDS011;45408;52.686;7.310;2024-03-17T15:33:33;13.30;;;7.30;;
59585;SDS011;45408;52.686;7.310;2024-03-17T15:36:04;13.35;;;7.22;;
59585;SDS011;45408;52.686;7.310;2024-03-17T15:38:30;11.43;;;6.60;;
59585;SDS011;45408;52.686;7.310;2024-03-17T15:40:58;11.43;;;7.37;;